sensor_id;sensor_type;location;lat;lon;timestamp;temperature;humidity
68350;DHT22;55268;-34.538;-58.598;2022-08-01T00:02:22;15.10;64.40
68350;DHT22;55268;-34.538;-58.598;2022-08-01T00:04:49;15.00;64.40
68350;DHT22;55268;-34.538;-58.598;2022-08-01T00:07:19;15.00;64.40
68350;DHT22;55268;-34.538;-58.598;2022-08-01T00:09:46;14.90;64.50
68350;DHT22;55268;-34.538;-58.598;2022-08-01T00:12:13;14.90;64.90
68350;DHT22;55268;-34.538;-58.598;2022-08-01T00:14:40;14.80;65.20
68350;DHT22;55268;-34.538;-58.598;2022-08-01T00:17:07;14.70;65.20
68350;DHT22;55268;-34.538;-58.598;2022-08-01T00:19:34;14.70;65.40
68350;DHT22;55268;-34.538;-58.598;2022-08-01T00:22:02;14.70;65.40
68350;DHT22;55268;-34.538;-58.598;2022-08-01T00:24:37;14.60;65.40
68350;DHT22;55268;-34.538;-58.598;2022-08-01T00:27:04;14.60;65.50
68350;DHT22;55268;-34.538;-58.598;2022-08-01T00:29:31;14.50;65.90
68350;DHT22;55268;-34.538;-58.598;2022-08-01T00:31:59;14.40;66.00
68350;DHT22;55268;-34.538;-58.598;2022-08-01T00:34:26;14.40;65.90
68350;DHT22;55268;-34.538;-58.598;2022-08-01T00:36:53;14.40;65.90
68350;DHT22;55268;-34.538;-58.598;2022-08-01T00:39:21;14.40;65.80
68350;DHT22;55268;-34.538;-58.598;2022-08-01T00:41:49;14.30;65.90
68350;DHT22;55268;-34.538;-58.598;2022-08-01T00:44:17;14.20;65.90
68350;DHT22;55268;-34.538;-58.598;2022-08-01T00:46:44;14.10;65.90
68350;DHT22;55268;-34.538;-58.598;2022-08-01T00:49:11;14.00;66.50
68350;DHT22;55268;-34.538;-58.598;2022-08-01T00:51:38;13.90;66.70
68350;DHT22;55268;-34.538;-58.598;2022-08-01T00:54:05;13.70;67.10
68350;DHT22;55268;-34.538;-58.598;2022-08-01T00:56:33;13.60;67.90
68350;DHT22;55268;-34.538;-58.598;2022-08-01T00:59:00;13.60;68.10
68350;DHT22;55268;-34.538;-58.598;2022-08-01T01:01:27;13.60;67.70
68350;DHT22;55268;-34.538;-58.598;2022-08-01T01:03:56;13.50;67.80
68350;DHT22;55268;-34.538;-58.598;2022-08-01T01:06:27;13.50;67.80
68350;DHT22;55268;-34.538;-58.598;2022-08-01T01:09:06;13.50;67.70
68350;DHT22;55268;-34.538;-58.598;2022-08-01T01:11:54;13.40;67.90
68350;DHT22;55268;-34.538;-58.598;2022-08-01T01:14:39;13.40;67.50
68350;DHT22;55268;-34.538;-58.598;2022-08-01T01:17:16;13.40;67.50
68350;DHT22;55268;-34.538;-58.598;2022-08-01T01:19:48;13.40;67.50
68350;DHT22;55268;-34.538;-58.598;2022-08-01T01:31:24;13.30;68.10
68350;DHT22;55268;-34.538;-58.598;2022-08-01T01:33:55;13.30;68.30
68350;DHT22;55268;-34.538;-58.598;2022-08-01T01:36:24;13.30;68.40
68350;DHT22;55268;-34.538;-58.598;2022-08-01T01:38:54;13.30;68.70
68350;DHT22;55268;-34.538;-58.598;2022-08-01T01:41:30;13.20;68.80
68350;DHT22;55268;-34.538;-58.598;2022-08-01T01:43:58;13.20;69.10
68350;DHT22;55268;-34.538;-58.598;2022-08-01T01:46:29;13.20;69.20
68350;DHT22;55268;-34.538;-58.598;2022-08-01T01:49:00;13.20;69.40
68350;DHT22;55268;-34.538;-58.598;2022-08-01T01:51:30;13.20;69.50
68350;DHT22;55268;-34.538;-58.598;2022-08-01T01:53:59;13.20;69.50
68350;DHT22;55268;-34.538;-58.598;2022-08-01T01:56:28;13.10;69.60
68350;DHT22;55268;-34.538;-58.598;2022-08-01T01:58:59;13.10;69.70
68350;DHT22;55268;-34.538;-58.598;2022-08-01T02:01:29;13.00;69.60
68350;DHT22;55268;-34.538;-58.598;2022-08-01T02:03:58;12.90;69.60
68350;DHT22;55268;-34.538;-58.598;2022-08-01T02:06:30;12.80;69.60
68350;DHT22;55268;-34.538;-58.598;2022-08-01T02:08:58;12.80;69.80
68350;DHT22;55268;-34.538;-58.598;2022-08-01T02:11:27;12.70;70.20
68350;DHT22;55268;-34.538;-58.598;2022-08-01T02:14:02;12.60;70.20
68350;DHT22;55268;-34.538;-58.598;2022-08-01T02:16:33;12.50;70.40
68350;DHT22;55268;-34.538;-58.598;2022-08-01T02:19:01;12.50;70.10
68350;DHT22;55268;-34.538;-58.598;2022-08-01T02:22:00;12.40;70.40
68350;DHT22;55268;-34.538;-58.598;2022-08-01T02:24:29;12.40;70.10
68350;DHT22;55268;-34.538;-58.598;2022-08-01T02:27:04;12.30;70.20
68350;DHT22;55268;-34.538;-58.598;2022-08-01T02:29:40;12.30;70.30
68350;DHT22;55268;-34.538;-58.598;2022-08-01T02:32:14;12.30;70.40
68350;DHT22;55268;-34.538;-58.598;2022-08-01T02:34:46;12.30;70.50
68350;DHT22;55268;-34.538;-58.598;2022-08-01T02:37:15;12.30;70.50
68350;DHT22;55268;-34.538;-58.598;2022-08-01T02:39:44;12.30;70.20
68350;DHT22;55268;-34.538;-58.598;2022-08-01T02:42:16;12.30;70.10
68350;DHT22;55268;-34.538;-58.598;2022-08-01T02:44:46;12.30;70.30
68350;DHT22;55268;-34.538;-58.598;2022-08-01T02:47:19;12.30;70.30
68350;DHT22;55268;-34.538;-58.598;2022-08-01T02:49:48;12.30;70.80
68350;DHT22;55268;-34.538;-58.598;2022-08-01T02:52:17;12.20;71.00
68350;DHT22;55268;-34.538;-58.598;2022-08-01T02:54:50;12.20;71.00
68350;DHT22;55268;-34.538;-58.598;2022-08-01T02:57:19;12.20;70.70
68350;DHT22;55268;-34.538;-58.598;2022-08-01T02:59:48;12.20;70.60
68350;DHT22;55268;-34.538;-58.598;2022-08-01T03:02:17;12.30;70.60
68350;DHT22;55268;-34.538;-58.598;2022-08-01T03:04:45;12.30;70.60
68350;DHT22;55268;-34.538;-58.598;2022-08-01T03:07:14;12.30;70.40
68350;DHT22;55268;-34.538;-58.598;2022-08-01T03:09:44;12.30;70.40
68350;DHT22;55268;-34.538;-58.598;2022-08-01T03:12:27;12.30;70.70
68350;DHT22;55268;-34.538;-58.598;2022-08-01T03:14:57;12.30;70.80
68350;DHT22;55268;-34.538;-58.598;2022-08-01T03:17:28;12.20;70.80
68350;DHT22;55268;-34.538;-58.598;2022-08-01T03:19:57;12.10;70.60
68350;DHT22;55268;-34.538;-58.598;2022-08-01T03:22:26;12.00;70.50
68350;DHT22;55268;-34.538;-58.598;2022-08-01T03:24:57;12.00;70.60
68350;DHT22;55268;-34.538;-58.598;2022-08-01T03:27:25;12.00;70.60
68350;DHT22;55268;-34.538;-58.598;2022-08-01T03:29:55;12.00;70.50
68350;DHT22;55268;-34.538;-58.598;2022-08-01T03:32:25;12.00;70.60
68350;DHT22;55268;-34.538;-58.598;2022-08-01T03:34:53;12.00;70.90
68350;DHT22;55268;-34.538;-58.598;2022-08-01T03:37:27;12.00;71.10
68350;DHT22;55268;-34.538;-58.598;2022-08-01T03:42:48;12.00;71.00
68350;DHT22;55268;-34.538;-58.598;2022-08-01T03:45:22;12.10;70.90
68350;DHT22;55268;-34.538;-58.598;2022-08-01T03:47:56;12.00;70.90
68350;DHT22;55268;-34.538;-58.598;2022-08-01T03:50:26;11.90;70.70
68350;DHT22;55268;-34.538;-58.598;2022-08-01T03:52:56;11.80;71.20
68350;DHT22;55268;-34.538;-58.598;2022-08-01T03:55:24;11.80;71.00
68350;DHT22;55268;-34.538;-58.598;2022-08-01T03:57:52;11.80;71.00
68350;DHT22;55268;-34.538;-58.598;2022-08-01T04:00:19;11.80;71.10
68350;DHT22;55268;-34.538;-58.598;2022-08-01T04:02:48;11.90;71.10
68350;DHT22;55268;-34.538;-58.598;2022-08-01T04:05:16;11.90;71.20
68350;DHT22;55268;-34.538;-58.598;2022-08-01T04:07:48;11.90;71.40
68350;DHT22;55268;-34.538;-58.598;2022-08-01T04:10:23;11.90;71.60
68350;DHT22;55268;-34.538;-58.598;2022-08-01T04:12:51;11.80;71.80
68350;DHT22;55268;-34.538;-58.598;2022-08-01T04:15:18;11.70;72.40
68350;DHT22;55268;-34.538;-58.598;2022-08-01T04:17:57;11.70;72.60
68350;DHT22;55268;-34.538;-58.598;2022-08-01T04:20:24;11.80;72.40
68350;DHT22;55268;-34.538;-58.598;2022-08-01T04:22:51;11.80;72.20
68350;DHT22;55268;-34.538;-58.598;2022-08-01T04:25:34;11.80;72.10
68350;DHT22;55268;-34.538;-58.598;2022-08-01T04:28:04;11.80;71.90
68350;DHT22;55268;-34.538;-58.598;2022-08-01T04:30:35;11.90;71.80
68350;DHT22;55268;-34.538;-58.598;2022-08-01T04:33:04;11.80;71.70
68350;DHT22;55268;-34.538;-58.598;2022-08-01T04:35:33;11.80;72.30
68350;DHT22;55268;-34.538;-58.598;2022-08-01T04:38:02;11.70;72.70
68350;DHT22;55268;-34.538;-58.598;2022-08-01T04:40:30;11.60;73.00
68350;DHT22;55268;-34.538;-58.598;2022-08-01T04:42:57;11.50;73.50
68350;DHT22;55268;-34.538;-58.598;2022-08-01T04:45:24;11.40;73.60
68350;DHT22;55268;-34.538;-58.598;2022-08-01T04:47:52;11.30;73.50
68350;DHT22;55268;-34.538;-58.598;2022-08-01T04:50:20;11.20;73.50
68350;DHT22;55268;-34.538;-58.598;2022-08-01T04:52:48;11.20;73.70
68350;DHT22;55268;-34.538;-58.598;2022-08-01T04:55:15;11.20;74.10
68350;DHT22;55268;-34.538;-58.598;2022-08-01T04:57:43;11.10;74.00
68350;DHT22;55268;-34.538;-58.598;2022-08-01T05:00:11;11.10;73.80
68350;DHT22;55268;-34.538;-58.598;2022-08-01T05:02:38;11.10;73.60
68350;DHT22;55268;-34.538;-58.598;2022-08-01T05:05:05;11.10;73.60
68350;DHT22;55268;-34.538;-58.598;2022-08-01T05:07:33;11.10;73.60
68350;DHT22;55268;-34.538;-58.598;2022-08-01T05:10:04;11.10;73.30
68350;DHT22;55268;-34.538;-58.598;2022-08-01T05:12:31;11.00;73.40
68350;DHT22;55268;-34.538;-58.598;2022-08-01T05:14:59;10.90;73.70
68350;DHT22;55268;-34.538;-58.598;2022-08-01T05:17:26;10.80;73.30
68350;DHT22;55268;-34.538;-58.598;2022-08-01T05:19:53;10.80;73.30
68350;DHT22;55268;-34.538;-58.598;2022-08-01T05:22:20;10.80;73.30
68350;DHT22;55268;-34.538;-58.598;2022-08-01T05:24:47;10.80;73.10
68350;DHT22;55268;-34.538;-58.598;2022-08-01T05:27:14;10.70;73.30
68350;DHT22;55268;-34.538;-58.598;2022-08-01T05:29:41;10.70;73.40
68350;DHT22;55268;-34.538;-58.598;2022-08-01T05:32:08;10.80;73.70
68350;DHT22;55268;-34.538;-58.598;2022-08-01T05:34:35;10.80;73.60
68350;DHT22;55268;-34.538;-58.598;2022-08-01T05:37:02;10.70;74.50
68350;DHT22;55268;-34.538;-58.598;2022-08-01T05:39:29;10.60;75.10
68350;DHT22;55268;-34.538;-58.598;2022-08-01T05:41:56;10.60;75.20
68350;DHT22;55268;-34.538;-58.598;2022-08-01T05:44:23;10.50;75.40
68350;DHT22;55268;-34.538;-58.598;2022-08-01T05:46:51;10.30;75.70
68350;DHT22;55268;-34.538;-58.598;2022-08-01T05:49:18;10.20;76.10
68350;DHT22;55268;-34.538;-58.598;2022-08-01T05:51:45;10.00;76.30
68350;DHT22;55268;-34.538;-58.598;2022-08-01T05:54:12;9.90;76.60
68350;DHT22;55268;-34.538;-58.598;2022-08-01T05:56:39;9.90;76.90
68350;DHT22;55268;-34.538;-58.598;2022-08-01T05:59:06;9.90;77.00
68350;DHT22;55268;-34.538;-58.598;2022-08-01T06:01:33;9.90;77.00
68350;DHT22;55268;-34.538;-58.598;2022-08-01T06:04:00;10.00;77.00
68350;DHT22;55268;-34.538;-58.598;2022-08-01T06:06:27;10.00;77.10
68350;DHT22;55268;-34.538;-58.598;2022-08-01T06:08:54;10.00;77.10
68350;DHT22;55268;-34.538;-58.598;2022-08-01T06:11:21;9.90;76.70
68350;DHT22;55268;-34.538;-58.598;2022-08-01T06:13:48;9.90;76.80
68350;DHT22;55268;-34.538;-58.598;2022-08-01T06:16:15;9.90;76.00
68350;DHT22;55268;-34.538;-58.598;2022-08-01T06:18:42;9.90;75.80
68350;DHT22;55268;-34.538;-58.598;2022-08-01T06:21:09;9.90;75.80
68350;DHT22;55268;-34.538;-58.598;2022-08-01T06:23:36;9.90;75.60
68350;DHT22;55268;-34.538;-58.598;2022-08-01T06:26:11;10.00;75.40
68350;DHT22;55268;-34.538;-58.598;2022-08-01T06:28:39;10.00;75.40
68350;DHT22;55268;-34.538;-58.598;2022-08-01T06:31:05;10.10;75.20
68350;DHT22;55268;-34.538;-58.598;2022-08-01T06:33:32;10.10;75.10
68350;DHT22;55268;-34.538;-58.598;2022-08-01T06:36:00;10.10;75.40
68350;DHT22;55268;-34.538;-58.598;2022-08-01T06:38:26;10.20;75.40
68350;DHT22;55268;-34.538;-58.598;2022-08-01T06:40:53;10.20;75.40
68350;DHT22;55268;-34.538;-58.598;2022-08-01T06:43:20;10.10;75.40
68350;DHT22;55268;-34.538;-58.598;2022-08-01T06:45:48;10.10;75.70
68350;DHT22;55268;-34.538;-58.598;2022-08-01T06:48:15;10.10;75.90
68350;DHT22;55268;-34.538;-58.598;2022-08-01T06:50:42;10.00;76.20
68350;DHT22;55268;-34.538;-58.598;2022-08-01T06:53:08;10.00;76.40
68350;DHT22;55268;-34.538;-58.598;2022-08-01T06:55:36;10.00;76.70
68350;DHT22;55268;-34.538;-58.598;2022-08-01T06:58:03;10.00;76.70
68350;DHT22;55268;-34.538;-58.598;2022-08-01T07:00:29;10.00;76.70
68350;DHT22;55268;-34.538;-58.598;2022-08-01T07:02:57;10.10;76.70
68350;DHT22;55268;-34.538;-58.598;2022-08-01T07:05:26;10.10;76.70
68350;DHT22;55268;-34.538;-58.598;2022-08-01T07:07:53;10.10;76.70
68350;DHT22;55268;-34.538;-58.598;2022-08-01T07:10:20;10.00;76.80
68350;DHT22;55268;-34.538;-58.598;2022-08-01T07:12:47;10.00;76.90
68350;DHT22;55268;-34.538;-58.598;2022-08-01T07:15:14;10.00;76.90
68350;DHT22;55268;-34.538;-58.598;2022-08-01T07:17:41;10.00;76.70
68350;DHT22;55268;-34.538;-58.598;2022-08-01T07:20:10;10.00;76.40
68350;DHT22;55268;-34.538;-58.598;2022-08-01T07:22:38;10.00;76.00
68350;DHT22;55268;-34.538;-58.598;2022-08-01T07:25:06;9.90;75.60
68350;DHT22;55268;-34.538;-58.598;2022-08-01T07:27:34;9.90;75.50
68350;DHT22;55268;-34.538;-58.598;2022-08-01T07:30:02;9.90;75.30
68350;DHT22;55268;-34.538;-58.598;2022-08-01T07:32:29;9.90;75.20
68350;DHT22;55268;-34.538;-58.598;2022-08-01T07:34:56;9.80;75.50
68350;DHT22;55268;-34.538;-58.598;2022-08-01T07:37:23;9.90;75.80
68350;DHT22;55268;-34.538;-58.598;2022-08-01T07:39:50;9.90;75.80
68350;DHT22;55268;-34.538;-58.598;2022-08-01T07:42:26;9.80;76.30
68350;DHT22;55268;-34.538;-58.598;2022-08-01T07:44:53;9.70;76.80
68350;DHT22;55268;-34.538;-58.598;2022-08-01T07:47:27;9.70;76.60
68350;DHT22;55268;-34.538;-58.598;2022-08-01T07:50:03;9.70;76.70
68350;DHT22;55268;-34.538;-58.598;2022-08-01T07:52:30;9.60;77.00
68350;DHT22;55268;-34.538;-58.598;2022-08-01T07:54:58;9.80;78.10
68350;DHT22;55268;-34.538;-58.598;2022-08-01T07:57:25;10.00;76.90
68350;DHT22;55268;-34.538;-58.598;2022-08-01T07:59:52;10.20;76.10
68350;DHT22;55268;-34.538;-58.598;2022-08-01T08:02:19;10.30;75.20
68350;DHT22;55268;-34.538;-58.598;2022-08-01T08:04:46;10.40;74.70
68350;DHT22;55268;-34.538;-58.598;2022-08-01T08:07:13;10.50;74.30
68350;DHT22;55268;-34.538;-58.598;2022-08-01T08:09:40;10.50;74.10
68350;DHT22;55268;-34.538;-58.598;2022-08-01T08:12:07;10.50;74.10
68350;DHT22;55268;-34.538;-58.598;2022-08-01T08:14:34;10.30;75.20
68350;DHT22;55268;-34.538;-58.598;2022-08-01T08:17:01;10.20;75.30
68350;DHT22;55268;-34.538;-58.598;2022-08-01T08:19:28;10.20;75.50
68350;DHT22;55268;-34.538;-58.598;2022-08-01T08:21:55;10.10;75.80
68350;DHT22;55268;-34.538;-58.598;2022-08-01T08:24:22;10.10;76.20
68350;DHT22;55268;-34.538;-58.598;2022-08-01T08:26:53;10.00;76.50
68350;DHT22;55268;-34.538;-58.598;2022-08-01T08:29:21;10.00;76.60
68350;DHT22;55268;-34.538;-58.598;2022-08-01T08:31:49;10.00;76.90
68350;DHT22;55268;-34.538;-58.598;2022-08-01T08:34:17;10.00;77.00
68350;DHT22;55268;-34.538;-58.598;2022-08-01T08:36:44;9.90;77.50
68350;DHT22;55268;-34.538;-58.598;2022-08-01T08:39:11;9.90;77.70
68350;DHT22;55268;-34.538;-58.598;2022-08-01T08:41:38;9.80;77.80
68350;DHT22;55268;-34.538;-58.598;2022-08-01T08:44:08;9.90;78.10
68350;DHT22;55268;-34.538;-58.598;2022-08-01T08:46:40;9.90;78.20
68350;DHT22;55268;-34.538;-58.598;2022-08-01T08:49:09;9.80;78.40
68350;DHT22;55268;-34.538;-58.598;2022-08-01T08:51:39;9.80;78.10
68350;DHT22;55268;-34.538;-58.598;2022-08-01T08:54:11;9.70;77.40
68350;DHT22;55268;-34.538;-58.598;2022-08-01T08:56:39;9.60;77.40
68350;DHT22;55268;-34.538;-58.598;2022-08-01T08:59:06;9.60;77.50
68350;DHT22;55268;-34.538;-58.598;2022-08-01T09:01:34;9.60;78.00
68350;DHT22;55268;-34.538;-58.598;2022-08-01T09:04:03;9.60;78.70
68350;DHT22;55268;-34.538;-58.598;2022-08-01T09:06:31;9.70;79.10
68350;DHT22;55268;-34.538;-58.598;2022-08-01T09:08:58;9.70;79.20
68350;DHT22;55268;-34.538;-58.598;2022-08-01T09:11:25;9.80;79.10
68350;DHT22;55268;-34.538;-58.598;2022-08-01T09:14:10;9.80;78.90
68350;DHT22;55268;-34.538;-58.598;2022-08-01T09:16:41;9.70;78.70
68350;DHT22;55268;-34.538;-58.598;2022-08-01T09:19:18;9.70;78.70
68350;DHT22;55268;-34.538;-58.598;2022-08-01T09:22:02;9.60;79.40
68350;DHT22;55268;-34.538;-58.598;2022-08-01T09:24:31;9.60;79.70
68350;DHT22;55268;-34.538;-58.598;2022-08-01T09:26:58;9.50;80.00
68350;DHT22;55268;-34.538;-58.598;2022-08-01T09:29:30;9.60;80.20
68350;DHT22;55268;-34.538;-58.598;2022-08-01T09:31:58;9.60;80.20
68350;DHT22;55268;-34.538;-58.598;2022-08-01T09:34:26;9.70;80.00
68350;DHT22;55268;-34.538;-58.598;2022-08-01T09:36:55;9.70;79.80
68350;DHT22;55268;-34.538;-58.598;2022-08-01T09:39:27;9.80;79.30
68350;DHT22;55268;-34.538;-58.598;2022-08-01T09:41:56;9.80;78.60
68350;DHT22;55268;-34.538;-58.598;2022-08-01T09:44:43;9.80;78.60
68350;DHT22;55268;-34.538;-58.598;2022-08-01T09:47:11;9.80;78.40
68350;DHT22;55268;-34.538;-58.598;2022-08-01T09:49:40;9.80;78.00
68350;DHT22;55268;-34.538;-58.598;2022-08-01T09:54:39;9.90;77.50
68350;DHT22;55268;-34.538;-58.598;2022-08-01T09:57:14;9.90;77.30
68350;DHT22;55268;-34.538;-58.598;2022-08-01T09:59:43;9.90;77.20
68350;DHT22;55268;-34.538;-58.598;2022-08-01T10:02:12;10.00;77.20
68350;DHT22;55268;-34.538;-58.598;2022-08-01T10:04:50;10.00;77.40
68350;DHT22;55268;-34.538;-58.598;2022-08-01T10:07:18;10.00;77.70
68350;DHT22;55268;-34.538;-58.598;2022-08-01T10:09:45;10.00;77.80
68350;DHT22;55268;-34.538;-58.598;2022-08-01T10:12:17;10.00;78.00
68350;DHT22;55268;-34.538;-58.598;2022-08-01T10:14:47;9.90;78.00
68350;DHT22;55268;-34.538;-58.598;2022-08-01T10:17:17;9.80;78.00
68350;DHT22;55268;-34.538;-58.598;2022-08-01T10:19:45;9.80;78.10
68350;DHT22;55268;-34.538;-58.598;2022-08-01T10:22:13;9.80;78.40
68350;DHT22;55268;-34.538;-58.598;2022-08-01T10:24:44;9.70;78.40
68350;DHT22;55268;-34.538;-58.598;2022-08-01T10:27:15;9.60;77.90
68350;DHT22;55268;-34.538;-58.598;2022-08-01T10:32:09;9.30;78.40
68350;DHT22;55268;-34.538;-58.598;2022-08-01T10:34:37;9.20;78.60
68350;DHT22;55268;-34.538;-58.598;2022-08-01T10:37:05;9.10;78.90
68350;DHT22;55268;-34.538;-58.598;2022-08-01T10:39:34;9.10;79.10
68350;DHT22;55268;-34.538;-58.598;2022-08-01T10:42:01;9.00;79.40
68350;DHT22;55268;-34.538;-58.598;2022-08-01T10:44:30;8.90;79.70
68350;DHT22;55268;-34.538;-58.598;2022-08-01T10:47:10;8.90;80.00
68350;DHT22;55268;-34.538;-58.598;2022-08-01T10:52:15;9.00;80.50
68350;DHT22;55268;-34.538;-58.598;2022-08-01T10:54:43;9.00;80.40
68350;DHT22;55268;-34.538;-58.598;2022-08-01T10:57:10;9.00;80.50
68350;DHT22;55268;-34.538;-58.598;2022-08-01T10:59:51;9.00;80.50
68350;DHT22;55268;-34.538;-58.598;2022-08-01T11:02:34;9.00;80.60
68350;DHT22;55268;-34.538;-58.598;2022-08-01T11:05:11;9.00;80.80
68350;DHT22;55268;-34.538;-58.598;2022-08-01T11:07:45;9.00;80.80
68350;DHT22;55268;-34.538;-58.598;2022-08-01T11:10:36;9.00;80.40
68350;DHT22;55268;-34.538;-58.598;2022-08-01T11:13:03;8.90;80.50
68350;DHT22;55268;-34.538;-58.598;2022-08-01T11:15:34;8.80;81.00
68350;DHT22;55268;-34.538;-58.598;2022-08-01T11:18:03;8.90;81.40
68350;DHT22;55268;-34.538;-58.598;2022-08-01T11:20:33;8.90;81.50
68350;DHT22;55268;-34.538;-58.598;2022-08-01T11:26:05;8.90;81.50
68350;DHT22;55268;-34.538;-58.598;2022-08-01T11:30:51;8.90;82.10
68350;DHT22;55268;-34.538;-58.598;2022-08-01T11:38:46;9.00;82.20
68350;DHT22;55268;-34.538;-58.598;2022-08-01T11:41:22;9.00;81.70
68350;DHT22;55268;-34.538;-58.598;2022-08-01T11:44:03;9.00;81.30
68350;DHT22;55268;-34.538;-58.598;2022-08-01T11:52:13;9.00;81.70
68350;DHT22;55268;-34.538;-58.598;2022-08-01T11:54:43;9.00;81.70
68350;DHT22;55268;-34.538;-58.598;2022-08-01T11:57:19;9.10;81.80
68350;DHT22;55268;-34.538;-58.598;2022-08-01T11:59:50;9.20;82.00
68350;DHT22;55268;-34.538;-58.598;2022-08-01T12:02:18;9.30;82.40
68350;DHT22;55268;-34.538;-58.598;2022-08-01T12:04:47;9.40;82.50
68350;DHT22;55268;-34.538;-58.598;2022-08-01T12:07:16;9.50;83.00
68350;DHT22;55268;-34.538;-58.598;2022-08-01T12:09:43;9.60;83.10
68350;DHT22;55268;-34.538;-58.598;2022-08-01T12:12:10;9.60;83.20
68350;DHT22;55268;-34.538;-58.598;2022-08-01T12:14:38;9.70;83.30
68350;DHT22;55268;-34.538;-58.598;2022-08-01T12:17:05;9.80;83.20
68350;DHT22;55268;-34.538;-58.598;2022-08-01T12:19:33;9.90;82.90
68350;DHT22;55268;-34.538;-58.598;2022-08-01T12:22:11;9.90;82.50
68350;DHT22;55268;-34.538;-58.598;2022-08-01T12:24:40;10.00;82.40
68350;DHT22;55268;-34.538;-58.598;2022-08-01T12:27:35;10.10;82.50
68350;DHT22;55268;-34.538;-58.598;2022-08-01T12:30:08;10.20;82.70
68350;DHT22;55268;-34.538;-58.598;2022-08-01T12:32:38;10.30;82.70
68350;DHT22;55268;-34.538;-58.598;2022-08-01T12:35:08;10.40;82.70
68350;DHT22;55268;-34.538;-58.598;2022-08-01T12:37:37;10.40;82.80
68350;DHT22;55268;-34.538;-58.598;2022-08-01T12:40:23;10.50;82.70
68350;DHT22;55268;-34.538;-58.598;2022-08-01T12:42:53;10.60;82.60
68350;DHT22;55268;-34.538;-58.598;2022-08-01T12:45:25;10.60;82.60
68350;DHT22;55268;-34.538;-58.598;2022-08-01T12:47:53;10.70;82.60
68350;DHT22;55268;-34.538;-58.598;2022-08-01T12:50:23;10.80;82.90
68350;DHT22;55268;-34.538;-58.598;2022-08-01T12:52:51;10.80;83.20
68350;DHT22;55268;-34.538;-58.598;2022-08-01T12:55:21;10.90;83.00
68350;DHT22;55268;-34.538;-58.598;2022-08-01T13:00:39;11.10;82.70
68350;DHT22;55268;-34.538;-58.598;2022-08-01T13:03:10;11.20;82.30
68350;DHT22;55268;-34.538;-58.598;2022-08-01T13:05:57;11.30;82.30
68350;DHT22;55268;-34.538;-58.598;2022-08-01T13:08:31;11.40;82.10
68350;DHT22;55268;-34.538;-58.598;2022-08-01T13:11:01;11.50;81.60
68350;DHT22;55268;-34.538;-58.598;2022-08-01T13:13:40;11.60;80.60
68350;DHT22;55268;-34.538;-58.598;2022-08-01T13:16:09;11.70;79.80
68350;DHT22;55268;-34.538;-58.598;2022-08-01T13:18:37;11.80;78.90
68350;DHT22;55268;-34.538;-58.598;2022-08-01T13:21:21;11.80;78.60
68350;DHT22;55268;-34.538;-58.598;2022-08-01T13:24:09;11.90;78.10
68350;DHT22;55268;-34.538;-58.598;2022-08-01T13:29:11;12.10;77.80
68350;DHT22;55268;-34.538;-58.598;2022-08-01T13:31:39;12.20;77.50
68350;DHT22;55268;-34.538;-58.598;2022-08-01T13:34:07;12.30;77.30
68350;DHT22;55268;-34.538;-58.598;2022-08-01T13:36:35;12.30;77.10
68350;DHT22;55268;-34.538;-58.598;2022-08-01T13:39:03;12.40;76.90
68350;DHT22;55268;-34.538;-58.598;2022-08-01T13:41:50;12.40;77.20
68350;DHT22;55268;-34.538;-58.598;2022-08-01T13:44:24;12.50;77.00
68350;DHT22;55268;-34.538;-58.598;2022-08-01T13:46:51;12.60;76.90
68350;DHT22;55268;-34.538;-58.598;2022-08-01T13:49:18;12.60;76.50
68350;DHT22;55268;-34.538;-58.598;2022-08-01T13:51:45;12.70;76.50
68350;DHT22;55268;-34.538;-58.598;2022-08-01T13:54:12;12.80;77.20
68350;DHT22;55268;-34.538;-58.598;2022-08-01T13:56:39;12.80;76.80
68350;DHT22;55268;-34.538;-58.598;2022-08-01T13:59:06;12.80;76.80
68350;DHT22;55268;-34.538;-58.598;2022-08-01T14:01:34;12.90;76.20
68350;DHT22;55268;-34.538;-58.598;2022-08-01T14:04:01;13.00;76.00
68350;DHT22;55268;-34.538;-58.598;2022-08-01T14:06:29;13.00;76.30
68350;DHT22;55268;-34.538;-58.598;2022-08-01T14:08:56;13.00;76.50
68350;DHT22;55268;-34.538;-58.598;2022-08-01T14:11:23;13.00;76.30
68350;DHT22;55268;-34.538;-58.598;2022-08-01T14:13:50;13.00;76.20
68350;DHT22;55268;-34.538;-58.598;2022-08-01T14:16:18;13.10;76.20
68350;DHT22;55268;-34.538;-58.598;2022-08-01T14:18:45;13.20;75.00
68350;DHT22;55268;-34.538;-58.598;2022-08-01T14:21:12;13.20;75.10
68350;DHT22;55268;-34.538;-58.598;2022-08-01T14:23:41;13.30;75.40
68350;DHT22;55268;-34.538;-58.598;2022-08-01T14:26:09;13.40;74.80
68350;DHT22;55268;-34.538;-58.598;2022-08-01T14:28:37;13.40;74.80
68350;DHT22;55268;-34.538;-58.598;2022-08-01T14:31:04;13.50;74.20
68350;DHT22;55268;-34.538;-58.598;2022-08-01T14:33:32;13.50;73.70
68350;DHT22;55268;-34.538;-58.598;2022-08-01T14:35:59;13.60;73.80
68350;DHT22;55268;-34.538;-58.598;2022-08-01T14:38:26;13.60;73.70
68350;DHT22;55268;-34.538;-58.598;2022-08-01T14:40:53;13.60;73.30
68350;DHT22;55268;-34.538;-58.598;2022-08-01T14:43:21;13.70;73.10
68350;DHT22;55268;-34.538;-58.598;2022-08-01T14:45:50;13.80;73.40
68350;DHT22;55268;-34.538;-58.598;2022-08-01T14:48:18;13.80;73.80
68350;DHT22;55268;-34.538;-58.598;2022-08-01T14:50:45;13.90;73.50
68350;DHT22;55268;-34.538;-58.598;2022-08-01T14:53:12;13.90;73.00
68350;DHT22;55268;-34.538;-58.598;2022-08-01T14:55:39;13.90;72.90
68350;DHT22;55268;-34.538;-58.598;2022-08-01T14:58:06;13.90;73.80
68350;DHT22;55268;-34.538;-58.598;2022-08-01T15:00:33;14.00;74.70
68350;DHT22;55268;-34.538;-58.598;2022-08-01T15:03:00;14.00;74.90
68350;DHT22;55268;-34.538;-58.598;2022-08-01T15:05:27;14.10;74.70
68350;DHT22;55268;-34.538;-58.598;2022-08-01T15:07:55;14.30;75.40
68350;DHT22;55268;-34.538;-58.598;2022-08-01T15:10:22;14.30;75.60
68350;DHT22;55268;-34.538;-58.598;2022-08-01T15:12:49;14.40;74.40
68350;DHT22;55268;-34.538;-58.598;2022-08-01T15:15:16;14.40;73.80
68350;DHT22;55268;-34.538;-58.598;2022-08-01T15:17:43;14.40;73.90
68350;DHT22;55268;-34.538;-58.598;2022-08-01T15:20:11;14.50;73.80
68350;DHT22;55268;-34.538;-58.598;2022-08-01T15:22:39;14.50;72.90
68350;DHT22;55268;-34.538;-58.598;2022-08-01T15:25:06;14.50;73.00
68350;DHT22;55268;-34.538;-58.598;2022-08-01T15:27:33;14.60;74.80
68350;DHT22;55268;-34.538;-58.598;2022-08-01T15:30:00;14.70;74.10
68350;DHT22;55268;-34.538;-58.598;2022-08-01T15:32:27;14.80;72.80
68350;DHT22;55268;-34.538;-58.598;2022-08-01T15:34:55;14.80;71.30
68350;DHT22;55268;-34.538;-58.598;2022-08-01T15:37:23;14.80;70.60
68350;DHT22;55268;-34.538;-58.598;2022-08-01T15:39:51;14.90;71.30
68350;DHT22;55268;-34.538;-58.598;2022-08-01T15:42:18;15.00;71.50
68350;DHT22;55268;-34.538;-58.598;2022-08-01T15:44:46;15.00;71.00
68350;DHT22;55268;-34.538;-58.598;2022-08-01T15:47:14;15.10;70.50
68350;DHT22;55268;-34.538;-58.598;2022-08-01T15:49:41;15.20;69.20